Augusta, Maine
Current Conditions -  °F | °C
As of 11:53 PM on Sunday 21 Dec 2014 (Local Time) from KAUG Reporting Station
Overcast Overcast  
Wind Chill: 18°   Ceiling: 5500
Heat Index: 25°   Visibility: 10mi
Dew Point: 23°   Wind: 6mph
Humidity: 92%   Direction: 330°NNW
Pressure: 30.39"   Gusts: NA
Location:  44.32°N, 69.78°W
Report Text: KAUG 220453Z AUTO 33005KT 10SM SCT041 OVC055 M04/M05 A3039 RMK AO2 SLP295 T10391050 410111067
Loading
Personal Weather Stations






























Interactive Weather Map New forecast layout! Learn more

10-Day Weather Forecast

Advertisements
Track Severe Weather on mobile